Time;durP1;ratioP1;P1;durP2;ratioP2;P2;SDS_P1;SDS_P2;PMS_P1;PMS_P2;Temp;Humidity;BMP_temperature;BMP_pressure;BME280_temperature;BME280_humidity;BME280_pressure;Samples;Min_cycle;Max_cycle;Signal;HPM_P1;HPM_P2
2022/09/05 00:02:19;;;;;;;6.00;3.70;;;19.70;99.90;;;19.97;69.96;95538.94;6176785;23;20436;-56
2022/09/05 00:04:50;;;;;;;5.57;3.60;;;19.60;99.90;;;19.89;69.98;95533.66;6151862;23;20476;-57
2022/09/05 00:07:21;;;;;;;5.50;4.97;;;19.50;99.90;;;19.84;69.74;95539.53;6175846;23;20433;-57
2022/09/05 00:10:01;;;;;;;3.97;3.57;;;19.40;99.90;;;19.79;70.94;95536.59;6176870;23;20493;-58
2022/09/05 00:12:28;;;;;;;4.30;3.70;;;19.40;99.90;;;19.76;70.92;95541.44;6176499;23;20401;-55
2022/09/05 00:15:14;;;;;;;3.47;3.17;;;19.40;99.90;;;19.69;71.19;95538.69;6176246;23;20527;-58
2022/09/05 00:17:45;;;;;;;6.03;4.10;;;19.30;99.90;;;19.64;71.59;95543.69;6176815;23;20394;-56
2022/09/05 00:20:17;;;;;;;7.23;3.47;;;19.20;99.90;;;19.61;71.18;95549.41;6176114;23;20426;-53
2022/09/05 00:22:47;;;;;;;7.03;3.20;;;19.20;99.90;;;19.56;71.61;95538.44;6175549;23;20488;-54
2022/09/05 00:25:47;;;;;;;4.03;3.73;;;19.20;99.90;;;19.51;72.27;95533.66;6176067;23;20762;-56
2022/09/05 00:28:19;;;;;;;2.80;2.60;;;19.10;99.90;;;19.44;71.24;95536.22;6175614;23;20933;-52
2022/09/05 00:31:01;;;;;;;6.20;4.27;;;19.00;99.90;;;19.34;72.31;95546.28;6175856;23;20910;-56
2022/09/05 00:33:30;;;;;;;4.17;3.97;;;19.00;99.90;;;19.22;71.54;95545.03;6175466;23;20422;-57
2022/09/05 00:36:18;;;;;;;4.47;4.20;;;18.90;99.90;;;19.13;72.49;95541.56;6175582;23;20476;-56
2022/09/05 00:38:54;;;;;;;7.23;5.30;;;18.80;99.90;;;19.08;72.67;95541.28;6175809;23;20449;-57
2022/09/05 00:41:22;;;;;;;5.20;4.70;;;18.70;99.90;;;19.05;72.89;95533.63;6176427;23;20468;-58
2022/09/05 00:43:50;;;;;;;5.43;4.87;;;18.70;99.90;;;19.06;73.50;95546.78;6176233;23;20434;-54
2022/09/05 00:46:21;;;;;;;5.80;5.30;;;18.70;99.90;;;19.09;73.43;95550.94;6175617;23;20406;-57
2022/09/05 00:48:53;;;;;;;6.97;6.40;;;18.70;99.90;;;19.11;73.11;95544.41;6175863;23;20425;-54
2022/09/05 00:51:29;;;;;;;7.37;6.77;;;18.70;99.90;;;19.13;73.06;95550.41;6175872;23;20852;-57
2022/09/05 00:54:17;;;;;;;9.57;6.63;;;18.70;99.90;;;19.13;72.93;95549.56;6175968;23;20445;-55
2022/09/05 00:57:00;;;;;;;7.10;6.50;;;18.70;99.90;;;19.08;73.43;95541.28;6178487;23;20401;-56
2022/09/05 00:59:50;;;;;;;7.57;6.77;;;18.70;99.90;;;19.03;72.87;95538.31;6178464;23;20421;-56
2022/09/05 01:02:25;;;;;;;8.53;6.40;;;18.70;99.90;;;18.99;73.50;95541.34;6177131;23;20890;-55
2022/09/05 01:04:53;;;;;;;7.60;6.93;;;18.60;99.90;;;18.97;73.29;95546.00;6178484;23;20421;-55
2022/09/05 01:07:32;;;;;;;8.07;7.33;;;18.60;99.90;;;18.93;73.29;95550.03;6178825;23;20397;-57
2022/09/05 01:10:07;;;;;;;8.27;7.40;;;18.60;99.90;;;18.90;73.40;95541.53;6178028;23;21040;-53
2022/09/05 01:12:52;;;;;;;9.83;7.50;;;18.50;99.90;;;18.88;74.09;95544.38;6178207;23;20432;-54
2022/09/05 01:15:24;;;;;;;7.97;7.37;;;18.50;99.90;;;18.88;73.58;95546.22;6177471;23;20456;-55
2022/09/05 01:18:21;;;;;;;10.37;6.80;;;18.50;99.90;;;18.88;73.25;95547.03;6178398;23;20802;-57
2022/09/05 01:21:16;;;;;;;6.80;6.20;;;18.50;99.90;;;18.86;72.82;95543.72;6177823;23;20902;-55
2022/09/05 01:23:54;;;;;;;8.30;7.60;;;18.50;99.90;;;18.83;72.62;95544.03;6177788;23;20421;-56
2022/09/05 01:26:45;;;;;;;8.03;7.23;;;18.50;99.90;;;18.78;72.61;95543.75;6179509;23;20448;-56
2022/09/05 01:29:19;;;;;;;7.20;6.47;;;18.50;99.90;;;18.71;72.18;95538.25;6177741;23;20425;-56
2022/09/05 01:32:03;;;;;;;7.63;6.93;;;18.40;99.90;;;18.67;72.11;95536.13;6176851;23;20397;-56
2022/09/05 01:34:34;;;;;;;7.83;7.10;;;18.40;99.90;;;18.62;71.93;95537.50;6178042;23;20539;-57
2022/09/05 01:37:06;;;;;;;8.53;7.53;;;18.30;99.90;;;18.59;72.42;95529.84;6178324;23;20473;-57
2022/09/05 01:39:41;;;;;;;10.43;7.47;;;18.30;99.90;;;18.56;71.75;95532.00;6177253;23;20421;-56
2022/09/05 01:42:16;;;;;;;8.60;7.90;;;18.30;99.90;;;18.54;72.22;95542.00;6177959;23;20429;-56
2022/09/05 01:44:54;;;;;;;11.27;7.33;;;18.20;99.90;;;18.51;71.86;95534.38;6177277;23;20973;-57
2022/09/05 01:47:38;;;;;;;10.40;7.40;;;18.20;99.90;;;18.52;72.33;95530.72;6178320;23;20421;-57
2022/09/05 01:50:15;;;;;;;9.23;7.77;;;18.20;99.90;;;18.51;71.75;95526.38;6176327;23;20989;-57
2022/09/05 01:52:57;;;;;;;15.70;8.07;;;18.20;99.90;;;18.50;72.16;95546.88;6177263;23;20400;-54
2022/09/05 01:55:39;;;;;;;11.70;7.07;;;18.20;99.90;;;18.49;71.80;95531.88;6177073;23;20496;-54
2022/09/05 01:58:13;;;;;;;8.23;7.43;;;18.20;99.90;;;18.51;71.34;95539.69;6177976;23;20785;-56
2022/09/05 02:00:46;;;;;;;10.10;6.80;;;18.20;99.90;;;18.52;71.99;95536.84;6177135;23;20881;-57
2022/09/05 02:03:19;;;;;;;8.27;7.57;;;18.20;99.90;;;18.55;71.34;95541.84;6176897;23;20989;-58
2022/09/05 02:06:16;;;;;;;7.57;6.80;;;18.20;99.90;;;18.56;71.79;95546.16;6177262;23;20397;-56
2022/09/05 02:09:09;;;;;;;10.83;8.30;;;18.20;99.90;;;18.57;71.33;95547.00;6177381;23;20435;-56
2022/09/05 02:11:44;;;;;;;7.63;7.03;;;18.20;99.90;;;18.56;71.29;95547.97;6177200;23;20398;-58
2022/09/05 02:14:23;;;;;;;7.00;6.50;;;18.20;99.90;;;18.55;71.64;95547.16;6176945;23;20421;-55
2022/09/05 02:16:52;;;;;;;8.10;7.30;;;18.20;99.90;;;18.55;71.52;95547.16;6177687;23;20389;-58
2022/09/05 02:19:23;;;;;;;8.57;6.60;;;18.20;99.90;;;18.57;71.38;95547.00;6177597;23;20426;-58
2022/09/05 02:21:57;;;;;;;8.60;7.73;;;18.20;99.90;;;18.59;71.50;95547.63;6176650;23;20478;-57
2022/09/05 02:24:28;;;;;;;6.73;5.87;;;18.20;99.90;;;18.58;71.54;95544.16;6177515;23;21011;-56
2022/09/05 02:27:10;;;;;;;7.50;6.90;;;18.20;99.90;;;18.59;71.11;95547.63;6177328;23;20394;-58
2022/09/05 02:29:49;;;;;;;6.63;5.93;;;18.20;99.90;;;18.60;71.13;95542.13;6177862;23;20472;-54
2022/09/05 02:32:23;;;;;;;9.17;5.83;;;18.30;99.90;;;18.60;71.25;95550.13;6177556;23;20389;-55
2022/09/05 02:34:57;;;;;;;6.23;5.70;;;18.30;99.90;;;18.60;70.77;95544.81;6176828;23;20555;-56
2022/09/05 02:37:28;;;;;;;6.83;6.13;;;18.30;99.90;;;18.63;71.02;95549.78;6177225;23;20398;-59
2022/09/05 02:39:59;;;;;;;5.83;5.23;;;18.30;99.90;;;18.61;70.95;95543.81;6177229;23;20426;-57
2022/09/05 02:42:31;;;;;;;7.40;6.60;;;18.30;99.90;;;18.60;70.36;95555.47;6177371;23;20402;-57
2022/09/05 02:45:15;;;;;;;6.50;6.00;;;18.30;99.90;;;18.58;70.98;95552.16;6177777;23;20461;-54
2022/09/05 02:47:50;;;;;;;6.87;6.27;;;18.20;99.90;;;18.59;70.82;95552.97;6177316;23;20436;-56
2022/09/05 02:50:44;;;;;;;6.37;5.77;;;18.20;99.90;;;18.60;71.42;95555.47;6177014;23;20472;-58
2022/09/05 02:53:12;;;;;;;6.67;6.17;;;18.20;99.90;;;18.62;70.57;95558.81;6173549;23;20409;-58
2022/09/05 02:56:08;;;;;;;11.93;6.50;;;18.30;99.90;;;18.60;70.62;95551.97;6176971;23;20448;-57
2022/09/05 02:58:49;;;;;;;6.50;5.70;;;18.20;99.90;;;18.59;70.99;95561.81;6176562;23;21037;-56
2022/09/05 03:01:23;;;;;;;6.23;5.20;;;18.20;99.90;;;18.58;71.09;95562.00;6176382;23;20402;-57
2022/09/05 03:03:55;;;;;;;5.47;5.10;;;18.20;99.90;;;18.57;71.06;95561.13;6176829;23;21096;-59
2022/09/05 03:06:30;;;;;;;5.10;4.70;;;18.20;99.90;;;18.58;70.72;95570.81;6177134;23;20902;-57
2022/09/05 03:09:14;;;;;;;5.20;4.80;;;18.20;99.90;;;18.58;70.54;95568.13;6176378;23;20459;-55
2022/09/05 03:12:24;;;;;;;6.83;4.63;;;18.20;99.90;;;18.58;70.09;95573.47;6177121;23;20389;-58
2022/09/05 03:15:24;;;;;;;5.03;4.63;;;18.20;99.90;;;18.57;70.50;95565.66;6175994;23;20516;-54
2022/09/05 03:18:13;;;;;;;6.77;4.83;;;18.20;99.90;;;18.55;69.90;95568.47;6176928;23;20421;-55
2022/09/05 03:21:40;;;;;;;6.43;5.30;;;18.20;99.90;;;18.51;69.64;95569.00;6176483;23;20495;-58
2022/09/05 03:25:06;;;;;;;4.20;3.80;;;18.20;99.90;;;18.47;69.78;95576.50;6176349;23;20524;-58
2022/09/05 03:28:30;;;;;;;4.60;4.30;;;18.10;99.90;;;18.44;70.21;95566.19;6061609;23;20413;-56
2022/09/05 03:31:25;;;;;;;4.80;4.27;;;18.10;99.90;;;18.48;70.28;95580.81;6141772;23;20793;-57
2022/09/05 03:34:12;;;;;;;4.90;4.50;;;18.10;99.90;;;18.51;69.91;95583.13;6175846;23;20437;-58
2022/09/05 03:37:07;;;;;;;15.53;4.40;;;18.10;99.90;;;18.56;69.71;95582.63;6176134;23;20528;-58
2022/09/05 03:40:23;;;;;;;5.17;4.70;;;18.20;99.90;;;18.60;69.54;95592.75;6165034;23;20484;-58
2022/09/05 03:43:10;;;;;;;5.80;3.90;;;18.20;99.90;;;18.61;69.39;95589.09;6177060;23;20394;-59
2022/09/05 03:46:07;;;;;;;4.00;3.77;;;18.30;99.90;;;18.64;69.40;95596.75;6175770;23;20402;-57
2022/09/05 03:49:16;;;;;;;12.77;3.93;;;18.30;99.90;;;18.68;69.64;95599.06;6176842;23;20496;-56
2022/09/05 03:51:48;;;;;;;5.27;4.67;;;18.20;99.90;;;18.71;68.77;95602.22;6175302;23;20493;-56
2022/09/05 03:54:52;;;;;;;5.53;4.37;;;18.30;99.90;;;18.73;68.64;95602.03;6176734;23;20439;-56
2022/09/05 03:57:32;;;;;;;4.73;4.20;;;18.30;99.90;;;18.71;69.05;95607.56;6176942;23;20394;-57
2022/09/05 04:00:20;;;;;;;4.70;4.30;;;18.30;99.90;;;18.71;68.91;95606.72;6176839;23;20409;-57
2022/09/05 04:03:00;;;;;;;4.90;4.50;;;18.30;99.90;;;18.73;69.06;95607.38;6173081;23;20950;-58
2022/09/05 04:05:30;;;;;;;8.30;4.77;;;18.30;99.90;;;18.77;69.59;95614.84;6176641;23;20396;-57
2022/09/05 04:08:00;;;;;;;6.67;5.00;;;18.40;99.90;;;18.80;68.93;95622.50;6176793;23;20393;-56
2022/09/05 04:10:32;;;;;;;5.17;4.87;;;18.40;99.90;;;18.84;69.07;95630.16;6176877;23;20584;-58
2022/09/05 04:13:03;;;;;;;5.43;4.77;;;18.40;99.90;;;18.85;69.02;95622.03;6176932;23;20381;-56
2022/09/05 04:15:36;;;;;;;10.13;4.90;;;18.50;99.90;;;18.89;68.96;95628.69;6176707;23;20926;-53
2022/09/05 04:18:11;;;;;;;6.80;4.93;;;18.50;99.90;;;18.92;68.97;95627.50;6174854;23;20390;-55
2022/09/05 04:20:42;;;;;;;5.33;4.83;;;18.50;99.90;;;18.94;69.00;95630.81;6175862;23;20397;-58
2022/09/05 04:23:23;;;;;;;6.03;5.53;;;18.60;99.90;;;18.96;69.53;95634.13;6176184;23;20899;-56
2022/09/05 04:26:06;;;;;;;11.23;6.03;;;18.60;99.90;;;18.98;69.25;95632.97;6176312;23;20873;-58
2022/09/05 04:28:48;;;;;;;23.47;11.47;;;18.60;99.90;;;19.02;68.84;95636.13;6176651;23;20433;-59
2022/09/05 04:31:23;;;;;;;13.87;11.20;;;18.60;99.90;;;19.04;68.85;95642.13;6175565;23;20394;-56
2022/09/05 04:34:02;;;;;;;20.90;14.97;;;18.60;99.90;;;19.06;69.15;95648.09;6175790;23;20519;-57
2022/09/05 04:36:31;;;;;;;11.93;10.43;;;18.70;99.90;;;19.10;69.34;95652.09;6174314;23;20441;-57
2022/09/05 04:39:24;;;;;;;17.40;8.60;;;18.70;99.90;;;19.15;69.21;95654.25;6175361;23;20459;-56
2022/09/05 04:41:54;;;;;;;22.40;8.60;;;18.70;99.90;;;19.18;68.50;95661.91;6175670;23;20480;-58
2022/09/05 04:44:25;;;;;;;6.77;6.07;;;18.80;99.90;;;19.22;68.54;95662.38;6176451;23;20505;-56
2022/09/05 04:46:54;;;;;;;7.47;5.53;;;18.80;99.90;;;19.27;68.90;95668.00;6176696;23;20402;-56
2022/09/05 04:49:23;;;;;;;6.87;6.17;;;18.90;99.90;;;19.32;68.54;95661.16;6176326;23;20425;-57
2022/09/05 04:52:27;;;;;;;9.70;6.17;;;18.90;99.90;;;19.36;67.61;95664.28;6176522;23;20951;-57
2022/09/05 04:54:57;;;;;;;8.00;6.20;;;18.90;99.90;;;19.33;68.10;95660.16;6176416;23;20821;-59
2022/09/05 04:57:29;;;;;;;6.17;5.67;;;18.90;99.90;;;19.32;67.75;95665.66;6177070;23;20471;-58
2022/09/05 05:00:00;;;;;;;7.40;6.70;;;18.90;99.90;;;19.32;67.83;95676.34;6176536;23;20418;-56
2022/09/05 05:02:33;;;;;;;7.20;6.60;;;18.90;99.90;;;19.27;67.90;95673.34;6176656;23;20475;-57
2022/09/05 05:05:02;;;;;;;7.27;6.57;;;18.90;99.90;;;19.24;67.81;95679.88;6177091;23;20422;-55
2022/09/05 05:07:39;;;;;;;7.50;6.23;;;18.90;99.90;;;19.15;67.58;95675.59;6176510;23;20441;-56
2022/09/05 05:10:07;;;;;;;7.00;6.30;;;18.80;99.90;;;19.10;67.41;95677.91;6176850;23;20773;-54
2022/09/05 05:12:50;;;;;;;6.87;6.20;;;18.80;99.90;;;19.05;67.66;95682.94;6175860;23;20492;-56
2022/09/05 05:15:20;;;;;;;6.93;6.23;;;18.70;99.90;;;19.03;67.48;95683.13;6175970;23;20934;-57
2022/09/05 05:17:52;;;;;;;7.23;6.50;;;18.70;99.90;;;19.06;67.11;95685.44;6176712;23;20787;-56
2022/09/05 05:20:23;;;;;;;8.20;6.53;;;18.70;99.90;;;19.09;67.41;95685.09;6176121;23;20505;-57
2022/09/05 05:22:58;;;;;;;8.37;6.00;;;18.70;99.90;;;19.13;67.18;95689.09;6176394;23;20393;-57
2022/09/05 05:25:25;;;;;;;7.83;6.37;;;18.80;99.90;;;19.18;67.04;95685.91;6176825;23;20893;-56
2022/09/05 05:28:09;;;;;;;6.43;5.93;;;18.80;99.90;;;19.24;67.00;95697.69;6175251;23;20438;-57
2022/09/05 05:30:36;;;;;;;5.90;5.40;;;18.90;99.90;;;19.30;67.08;95702.34;6176954;23;20436;-59
2022/09/05 05:33:12;;;;;;;17.13;6.60;;;18.90;99.90;;;19.42;67.17;95706.28;6173486;23;20421;-59
2022/09/05 05:35:39;;;;;;;7.47;6.20;;;19.00;99.90;;;19.55;66.70;95702.22;6176031;23;20985;-54
2022/09/05 05:38:27;;;;;;;7.37;5.23;;;19.10;99.90;;;19.71;66.46;95702.97;6175653;23;20401;-55
2022/09/05 05:40:57;;;;;;;8.20;5.67;;;19.20;99.90;;;19.95;65.78;95708.34;6177583;23;20878;-58
2022/09/05 05:43:36;;;;;;;6.77;6.13;;;19.50;99.90;;;20.17;66.00;95702.19;6177259;23;20827;-55
2022/09/05 05:46:03;;;;;;;14.37;5.00;;;19.70;99.90;;;20.45;65.69;95708.78;6177460;23;20439;-54
2022/09/05 05:48:35;;;;;;;4.60;4.23;;;19.90;99.90;;;20.70;64.46;95712.13;6178941;23;21085;-56
2022/09/05 05:51:26;;;;;;;4.80;4.40;;;20.10;99.90;;;20.85;63.47;95707.63;6177493;23;20389;-54
2022/09/05 05:53:57;;;;;;;4.87;4.30;;;20.30;99.90;;;20.96;63.34;95711.69;6177109;23;20483;-61
2022/09/05 05:56:48;;;;;;;4.43;4.03;;;20.40;99.90;;;21.06;63.51;95714.91;6176955;23;20758;-57
2022/09/05 05:59:47;;;;;;;8.13;4.03;;;20.60;99.90;;;21.20;62.66;95718.59;6176378;23;20475;-56
2022/09/05 06:03:11;;;;;;;5.47;3.20;;;20.70;99.90;;;21.33;62.62;95720.59;6161856;23;20405;-58
2022/09/05 06:06:06;;;;;;;3.80;3.50;;;20.80;99.90;;;21.55;62.09;95721.53;6136430;23;20412;-55
2022/09/05 06:08:52;;;;;;;4.33;3.93;;;21.00;99.90;;;21.72;61.68;95714.13;6177393;23;20452;-56
2022/09/05 06:11:49;;;;;;;3.43;3.13;;;21.20;99.90;;;22.00;60.52;95716.06;6176494;23;20501;-59
2022/09/05 06:15:05;;;;;;;7.63;4.00;;;21.40;99.50;;;22.33;60.21;95716.41;6176650;23;20425;-59
2022/09/05 06:18:13;;;;;;;4.20;3.80;;;21.70;99.10;;;22.68;59.09;95715.66;6176542;23;20437;-60
2022/09/05 06:21:31;;;;;;;4.20;3.40;;;22.00;98.80;;;22.97;58.19;95724.53;6175962;23;20397;-53
2022/09/05 06:24:34;;;;;;;3.63;3.43;;;22.40;97.80;;;23.18;57.69;95716.44;6117070;23;20545;-60
2022/09/05 06:27:41;;;;;;;5.57;3.10;;;22.60;97.20;;;23.45;55.80;95724.63;6176764;23;20735;-56
2022/09/05 06:30:13;;;;;;;6.87;2.80;;;22.80;96.80;;;23.67;56.40;95724.53;6076111;23;20505;-56
2022/09/05 06:33:06;;;;;;;3.37;2.70;;;23.00;96.40;;;23.95;55.22;95732.50;6175474;23;20394;-55
2022/09/05 06:35:46;;;;;;;4.73;3.10;;;23.30;95.70;;;24.23;55.13;95735.06;6177096;23;20467;-58
2022/09/05 06:38:44;;;;;;;7.03;3.03;;;23.50;95.60;;;24.43;52.79;95728.88;6176634;23;20425;-59
2022/09/05 06:41:24;;;;;;;3.47;3.17;;;23.80;94.20;;;24.72;54.04;95732.22;6176555;23;20429;-55
2022/09/05 06:44:35;;;;;;;2.60;2.50;;;24.00;93.90;;;25.07;51.70;95740.91;6175921;23;20421;-61
2022/09/05 06:47:06;;;;;;;3.90;3.50;;;24.30;92.20;;;25.12;53.02;95740.28;6177434;23;20422;-56
2022/09/05 06:49:46;;;;;;;4.00;3.70;;;24.50;92.90;;;25.05;51.74;95740.25;6176598;23;20664;-55
2022/09/05 06:53:00;;;;;;;3.50;3.17;;;24.50;91.80;;;24.87;50.55;95740.91;6177588;23;20428;-56
2022/09/05 06:55:53;;;;;;;6.43;3.50;;;24.40;91.00;;;24.73;51.10;95729.34;6177190;23;20386;-60
2022/09/05 06:59:18;;;;;;;2.40;2.30;;;24.20;90.50;;;24.53;51.30;95730.13;6177138;23;20472;-61
2022/09/05 07:01:49;;;;;;;3.47;3.27;;;24.10;90.40;;;24.45;51.44;95729.50;6142687;23;20734;-60
2022/09/05 07:04:29;;;;;;;3.17;2.97;;;24.00;90.40;;;24.50;50.50;95735.91;6177079;23;20425;-59
2022/09/05 07:07:13;;;;;;;7.10;3.50;;;24.00;89.40;;;24.70;50.69;95733.25;6177288;23;20886;-59
2022/09/05 07:09:57;;;;;;;4.23;3.93;;;24.10;90.20;;;25.04;51.04;95738.63;6177729;23;20464;-59
2022/09/05 07:12:26;;;;;;;4.70;3.30;;;24.40;90.30;;;25.44;50.34;95735.03;6177155;23;21006;-58
2022/09/05 07:15:03;;;;;;;7.10;3.73;;;24.70;90.20;;;25.92;49.69;95735.47;6177030;23;20512;-59
2022/09/05 07:17:45;;;;;;;6.37;3.40;;;25.10;88.80;;;26.37;49.35;95737.34;6176838;23;20444;-61
2022/09/05 07:20:20;;;;;;;3.30;3.00;;;25.60;88.30;;;26.64;49.72;95734.44;6176479;23;20487;-62
2022/09/05 07:22:54;;;;;;;3.70;3.30;;;25.90;88.10;;;26.76;48.92;95721.09;6177105;23;20940;-62
2022/09/05 07:25:25;;;;;;;3.23;3.00;;;26.10;86.00;;;26.73;48.86;95725.06;6175707;23;20471;-56
2022/09/05 07:27:55;;;;;;;3.03;2.83;;;26.10;85.00;;;26.67;47.65;95725.94;6176224;23;20451;-62
2022/09/05 07:30:22;;;;;;;3.67;3.37;;;26.10;81.70;;;26.54;47.42;95734.09;6176388;23;20417;-62
2022/09/05 07:32:51;;;;;;;2.93;2.73;;;26.00;79.80;;;26.50;47.91;95732.91;6176288;23;20798;-63
2022/09/05 07:35:23;;;;;;;4.57;3.70;;;26.00;80.80;;;26.60;46.26;95725.97;6176472;23;20507;-56
2022/09/05 07:37:57;;;;;;;3.07;2.90;;;26.00;77.30;;;26.65;47.01;95733.41;6177296;23;20483;-55
2022/09/05 07:40:24;;;;;;;2.87;2.67;;;26.10;79.90;;;26.80;47.42;95723.13;6176494;23;20389;-64
2022/09/05 07:42:55;;;;;;;7.13;2.97;;;26.20;79.50;;;26.98;46.45;95730.44;6176896;23;20405;-62
2022/09/05 07:45:24;;;;;;;4.30;3.43;;;26.40;76.80;;;27.22;46.01;95733.34;6176342;23;20417;-55
2022/09/05 07:47:57;;;;;;;3.10;2.90;;;26.60;75.90;;;27.51;46.20;95733.66;6177028;23;20837;-62
2022/09/05 07:50:26;;;;;;;3.33;3.13;;;26.90;76.60;;;27.64;44.73;95733.53;6176576;23;20455;-55
2022/09/05 07:52:53;;;;;;;2.83;2.63;;;27.10;73.80;;;27.81;44.95;95738.31;6176924;23;20471;-60
2022/09/05 07:55:26;;;;;;;3.50;3.30;;;27.40;73.10;;;28.12;44.54;95740.03;6176250;23;20421;-60
2022/09/05 07:57:54;;;;;;;3.23;3.03;;;27.70;71.80;;;28.38;43.53;95729.88;6176857;23;20433;-55
2022/09/05 08:00:23;;;;;;;3.37;3.17;;;28.00;70.30;;;28.53;40.22;95732.16;6175792;23;20423;-56
2022/09/05 08:02:51;;;;;;;3.53;3.33;;;28.20;64.40;;;28.74;42.81;95738.94;6174508;23;20405;-52
2022/09/05 08:05:20;;;;;;;3.20;3.00;;;28.40;67.90;;;28.95;42.71;95741.09;6175998;23;20767;-58
2022/09/05 08:07:51;;;;;;;7.90;2.83;;;28.60;66.90;;;28.98;42.43;95737.88;6176363;23;20413;-57
2022/09/05 08:10:20;;;;;;;2.70;2.50;;;28.70;66.70;;;29.02;42.64;95742.84;6180148;23;20417;-57
2022/09/05 08:12:51;;;;;;;4.13;3.07;;;28.70;65.00;;;29.03;42.11;95739.06;6176763;23;20751;-57
2022/09/05 08:15:21;;;;;;;3.30;3.10;;;28.70;65.00;;;29.17;41.90;95728.84;6176467;23;20421;-56
2022/09/05 08:17:57;;;;;;;9.73;2.80;;;28.80;65.00;;;29.48;40.95;95731.22;6176569;23;20528;-57
2022/09/05 08:20:32;;;;;;;6.00;3.00;;;29.10;62.90;;;29.76;39.35;95732.34;6176996;23;20416;-56
2022/09/05 08:23:07;;;;;;;3.10;2.80;;;29.50;60.40;;;30.03;40.87;95731.78;6176553;23;20397;-56
2022/09/05 08:25:38;;;;;;;3.10;2.57;;;29.90;60.80;;;30.26;38.40;95728.16;6176397;23;20642;-54
2022/09/05 08:28:10;;;;;;;7.90;3.13;;;30.10;57.60;;;30.38;39.49;95737.06;6175843;23;20449;-55
2022/09/05 08:30:42;;;;;;;4.63;2.80;;;30.40;58.40;;;30.58;38.76;95738.53;6175971;23;20170;-57
2022/09/05 08:33:13;;;;;;;10.13;2.83;;;30.60;57.60;;;30.68;39.09;95733.28;6175408;23;20213;-61
2022/09/05 08:35:43;;;;;;;10.73;3.03;;;30.80;56.90;;;30.89;38.46;95736.31;6176016;23;20162;-56
2022/09/05 08:38:12;;;;;;;3.93;2.83;;;30.90;56.90;;;31.07;38.47;95730.66;6176050;23;20236;-56
2022/09/05 08:40:46;;;;;;;3.30;3.00;;;31.10;56.00;;;31.24;37.40;95730.63;6176282;23;20631;-55
2022/09/05 08:43:17;;;;;;;3.17;2.90;;;31.10;55.30;;;31.35;37.39;95734.31;6175300;23;20784;-56
2022/09/05 08:45:48;;;;;;;10.07;3.20;;;31.20;54.30;;;31.44;37.21;95735.53;6176191;23;20232;-56
2022/09/05 08:48:22;;;;;;;3.17;2.97;;;31.20;54.70;;;31.35;35.78;95734.31;6176484;23;20174;-55
2022/09/05 08:51:28;;;;;;;2.73;2.63;;;31.10;53.90;;;31.15;36.04;95731.31;6175576;23;20614;-56
2022/09/05 08:54:22;;;;;;;3.57;3.27;;;30.90;53.10;;;30.96;36.89;95736.97;6155552;23;20301;-55
2022/09/05 08:56:57;;;;;;;3.53;2.83;;;30.60;53.20;;;30.97;36.96;95733.25;6171070;23;20670;-55
2022/09/05 08:59:34;;;;;;;3.13;2.93;;;30.50;53.70;;;31.00;36.43;95734.63;6176210;23;20193;-54
2022/09/05 09:02:47;;;;;;;3.87;3.50;;;30.50;53.30;;;31.01;36.17;95736.28;6175774;23;20244;-53
2022/09/05 09:05:33;;;;;;;4.37;3.97;;;30.50;53.00;;;31.02;35.93;95738.75;6172190;23;20255;-55
2022/09/05 09:08:07;;;;;;;3.20;3.00;;;30.50;51.80;;;31.05;36.75;95730.09;6171950;23;20260;-54
2022/09/05 09:10:47;;;;;;;3.90;3.53;;;30.50;53.50;;;31.14;36.55;95725.06;6175683;23;20224;-55
2022/09/05 09:13:23;;;;;;;2.77;2.50;;;30.50;53.10;;;31.21;35.48;95724.88;6175234;23;20158;-55
2022/09/05 09:15:57;;;;;;;4.87;3.37;;;30.60;52.00;;;31.21;36.45;95738.47;6178416;23;20181;-56
2022/09/05 09:18:30;;;;;;;3.17;2.97;;;30.60;52.40;;;31.19;35.40;95727.84;6178116;23;20678;-55
2022/09/05 09:20:59;;;;;;;4.77;3.20;;;30.60;51.40;;;31.24;36.28;95724.38;6178347;23;20162;-56
2022/09/05 09:23:43;;;;;;;3.30;3.10;;;30.60;52.30;;;31.37;35.97;95732.19;6176203;23;20194;-54
2022/09/05 09:26:14;;;;;;;6.60;2.70;;;30.70;51.90;;;31.46;35.89;95725.25;6180107;23;20187;-56
2022/09/05 09:28:53;;;;;;;3.63;3.43;;;30.80;51.80;;;31.34;34.54;95724.53;6178488;23;20220;-55
2022/09/05 09:31:45;;;;;;;4.43;3.27;;;30.80;50.50;;;31.13;35.05;95723.41;6176351;23;20166;-56
2022/09/05 09:34:52;;;;;;;4.27;3.50;;;30.60;51.20;;;30.95;34.30;95735.31;6177192;23;20202;-58
2022/09/05 09:38:12;;;;;;;2.63;2.53;;;30.50;50.40;;;30.53;35.29;95727.56;6110453;23;20256;-59
2022/09/05 09:41:05;;;;;;;2.80;2.60;;;30.10;50.50;;;30.11;35.74;95722.44;6178198;23;20174;-58
2022/09/05 09:43:50;;;;;;;2.70;2.53;;;29.70;51.20;;;29.85;36.25;95716.50;6176537;23;20255;-58
2022/09/05 09:46:19;;;;;;;3.07;2.87;;;29.40;51.40;;;29.67;36.38;95712.88;6178060;23;20165;-54
2022/09/05 09:49:14;;;;;;;3.07;2.87;;;29.20;51.40;;;29.54;36.51;95712.31;6177676;23;20190;-54
2022/09/05 09:52:32;;;;;;;3.73;2.97;;;29.00;52.30;;;29.57;37.54;95696.41;6177816;23;20232;-58
2022/09/05 09:55:37;;;;;;;3.10;2.90;;;28.90;53.10;;;29.65;36.38;95698.75;6149022;23;20193;-57
2022/09/05 09:58:29;;;;;;;2.97;2.77;;;29.00;52.60;;;29.65;36.10;95693.34;6177083;23;20232;-56
2022/09/05 10:01:08;;;;;;;3.00;2.80;;;29.00;52.00;;;29.58;36.02;95698.06;6177521;23;20464;-53
2022/09/05 10:04:12;;;;;;;3.27;2.80;;;29.00;52.00;;;29.46;35.76;95691.84;6176728;23;20433;-55
2022/09/05 10:06:56;;;;;;;4.60;3.47;;;28.90;51.50;;;29.24;36.50;95683.50;6177048;23;20401;-55
2022/09/05 10:09:33;;;;;;;2.80;2.70;;;28.70;52.40;;;29.13;37.03;95685.97;6176418;23;20189;-59
2022/09/05 10:12:41;;;;;;;2.80;2.57;;;28.60;52.80;;;29.22;37.12;95678.34;6176985;23;20459;-57
2022/09/05 10:15:25;;;;;;;3.07;2.97;;;28.60;52.90;;;29.36;36.88;95678.91;6172686;23;20435;-56
2022/09/05 10:18:25;;;;;;;3.20;3.00;;;28.70;52.80;;;29.35;36.45;95665.59;6176513;23;20516;-52
2022/09/05 10:21:10;;;;;;;3.10;2.90;;;28.70;52.50;;;29.37;37.29;95664.28;6176900;23;20404;-58
2022/09/05 10:24:20;;;;;;;3.20;2.90;;;28.80;52.90;;;29.52;36.75;95663.78;6176072;23;20420;-58
2022/09/05 10:27:21;;;;;;;4.80;3.17;;;28.80;52.90;;;29.66;36.29;95664.31;6135365;23;20746;-56
2022/09/05 10:30:08;;;;;;;3.40;3.20;;;29.00;52.60;;;29.65;36.55;95668.94;6178198;23;20502;-58
2022/09/05 10:32:41;;;;;;;2.93;2.70;;;29.00;52.70;;;29.56;36.22;95661.41;6177418;23;20393;-55
2022/09/05 10:35:18;;;;;;;3.43;3.23;;;29.00;52.50;;;29.31;36.83;95666.06;6177664;23;20429;-59
2022/09/05 10:37:48;;;;;;;4.37;2.40;;;28.80;51.90;;;29.03;37.31;95658.63;6176662;23;20520;-56
2022/09/05 10:40:18;;;;;;;3.03;2.60;;;28.60;52.10;;;28.89;37.68;95647.25;6177283;23;20452;-54
2022/09/05 10:42:48;;;;;;;4.43;2.73;;;28.40;52.60;;;28.87;37.25;95651.25;6177116;23;20405;-56
2022/09/05 10:45:16;;;;;;;3.70;3.40;;;28.30;53.10;;;28.84;37.72;95652.53;6177027;23;20436;-56
2022/09/05 10:47:47;;;;;;;2.87;2.67;;;28.30;53.00;;;28.80;37.77;95654.06;6177140;23;20405;-56
2022/09/05 10:50:26;;;;;;;4.70;2.30;;;28.20;53.20;;;28.87;37.87;95654.75;6176607;23;20459;-57
2022/09/05 10:53:21;;;;;;;5.33;3.27;;;28.20;53.60;;;28.88;36.70;95651.00;6176679;23;20464;-57
2022/09/05 10:56:04;;;;;;;2.53;2.43;;;28.30;51.60;;;28.82;37.14;95653.84;6177171;23;20389;-56
2022/09/05 10:58:58;;;;;;;4.37;2.50;;;28.20;53.00;;;28.88;37.33;95648.28;6176373;23;20523;-56
2022/09/05 11:01:33;;;;;;;2.57;2.30;;;28.20;53.20;;;29.02;37.83;95648.03;6175669;23;20472;-58
2022/09/05 11:04:16;;;;;;;3.40;3.10;;;28.30;53.40;;;29.06;37.00;95641.91;6176003;23;20416;-57
2022/09/05 11:06:57;;;;;;;7.40;2.83;;;28.40;52.80;;;29.06;36.95;95644.63;6177039;23;20408;-58
2022/09/05 11:09:49;;;;;;;2.87;2.67;;;28.40;53.00;;;29.03;36.49;95625.31;6176206;23;20428;-58
2022/09/05 11:12:37;;;;;;;3.33;3.13;;;28.40;52.50;;;29.10;37.62;95636.84;6176472;23;20394;-55
2022/09/05 11:15:06;;;;;;;7.17;2.40;;;28.40;53.20;;;29.16;37.18;95641.31;6175981;23;20425;-54
2022/09/05 11:17:39;;;;;;;5.90;3.10;;;28.50;53.20;;;29.15;37.46;95628.81;6176245;23;20448;-57